createdAt,value
2022-11-23T00:02:19.831Z,10.40
2022-11-23T00:04:46.188Z,10.39
2022-11-23T00:07:12.538Z,10.35
2022-11-23T00:09:38.922Z,10.02
2022-11-23T00:12:05.305Z,9.90
2022-11-23T00:14:31.631Z,9.78
2022-11-23T00:19:42.280Z,9.58
2022-11-23T00:22:08.641Z,9.55
2022-11-23T00:24:35.007Z,9.46
2022-11-23T00:27:01.393Z,9.42
2022-11-23T00:29:27.723Z,9.41
2022-11-23T00:31:54.088Z,9.37
2022-11-23T00:34:20.425Z,9.34
2022-11-23T00:36:46.743Z,9.31
2022-11-23T00:39:13.118Z,9.28
2022-11-23T00:41:39.484Z,9.23
2022-11-23T00:44:05.862Z,9.19
2022-11-23T00:46:32.204Z,9.31
2022-11-23T00:48:58.564Z,9.27
2022-11-23T00:51:24.898Z,9.24
2022-11-23T00:53:51.269Z,9.20
2022-11-23T00:56:17.650Z,9.16
2022-11-23T00:58:43.980Z,9.18
2022-11-23T01:01:10.434Z,9.08
2022-11-23T01:03:36.875Z,9.05
2022-11-23T01:06:03.238Z,8.98
2022-11-23T01:08:29.616Z,9.06
2022-11-23T01:10:55.993Z,9.16
2022-11-23T01:13:22.328Z,9.43
2022-11-23T01:15:48.703Z,9.78
2022-11-23T01:18:15.075Z,9.62
2022-11-23T01:20:41.456Z,9.45
2022-11-23T01:23:07.833Z,9.60
2022-11-23T01:25:34.163Z,9.76
2022-11-23T01:28:00.488Z,9.62
2022-11-23T01:30:26.816Z,9.60
2022-11-23T01:32:53.142Z,9.38
2022-11-23T01:35:19.479Z,9.28
2022-11-23T01:37:45.811Z,9.22
2022-11-23T01:40:12.124Z,9.15
2022-11-23T01:42:38.488Z,9.29
2022-11-23T01:45:04.826Z,9.07
2022-11-23T01:47:31.188Z,9.00
2022-11-23T01:49:57.566Z,9.07
2022-11-23T01:52:23.944Z,9.00
2022-11-23T01:54:50.326Z,8.95
2022-11-23T01:57:16.668Z,8.86
2022-11-23T01:59:43.007Z,8.84
2022-11-23T02:02:09.337Z,8.83
2022-11-23T02:04:35.661Z,8.99
2022-11-23T02:07:02.045Z,9.31
2022-11-23T02:09:28.396Z,9.05
2022-11-23T02:11:54.788Z,9.32
2022-11-23T02:14:23.585Z,9.07
2022-11-23T02:16:50.109Z,9.15
2022-11-23T02:19:16.491Z,9.22
2022-11-23T02:21:42.862Z,9.23
2022-11-23T02:24:09.238Z,9.16
2022-11-23T02:26:35.626Z,9.01
2022-11-23T02:29:02.010Z,8.85
2022-11-23T02:31:28.435Z,8.83
2022-11-23T02:33:54.806Z,9.04
2022-11-23T02:36:21.193Z,9.05
2022-11-23T02:38:47.578Z,8.86
2022-11-23T02:41:14.051Z,8.89
2022-11-23T02:43:40.394Z,8.99
2022-11-23T02:46:06.721Z,9.04
2022-11-23T02:48:32.994Z,9.03
2022-11-23T02:50:59.290Z,9.01
2022-11-23T02:53:25.631Z,9.16
2022-11-23T02:55:51.959Z,9.22
2022-11-23T02:58:18.313Z,9.10
2022-11-23T03:00:44.699Z,8.94
2022-11-23T03:03:11.051Z,8.83
2022-11-23T03:05:37.412Z,8.72
2022-11-23T03:08:03.750Z,8.85
2022-11-23T03:10:30.093Z,9.02
2022-11-23T03:12:56.458Z,8.88
2022-11-23T03:15:22.795Z,8.84
2022-11-23T03:17:49.177Z,8.72
2022-11-23T03:20:15.518Z,8.84
2022-11-23T03:22:41.852Z,8.77
2022-11-23T03:25:08.194Z,9.05
2022-11-23T03:27:34.558Z,9.02
2022-11-23T03:30:00.936Z,9.65
2022-11-23T03:32:27.279Z,9.72
2022-11-23T03:34:53.608Z,9.59
2022-11-23T03:37:19.946Z,9.86
2022-11-23T03:39:47.674Z,9.80
2022-11-23T03:42:14.244Z,10.13
2022-11-23T03:44:40.621Z,10.22
2022-11-23T03:47:06.948Z,10.33
2022-11-23T03:49:33.511Z,10.48
2022-11-23T03:52:00.065Z,10.14
2022-11-23T03:54:26.457Z,9.66
2022-11-23T03:56:52.798Z,9.50
2022-11-23T03:59:19.156Z,10.04
2022-11-23T04:01:45.498Z,9.74
2022-11-23T04:04:11.874Z,9.91
2022-11-23T04:06:38.204Z,9.71
2022-11-23T04:09:04.582Z,9.29
2022-11-23T04:11:30.930Z,9.47
2022-11-23T04:13:57.300Z,9.89
2022-11-23T04:16:23.676Z,10.06
2022-11-23T04:18:50.060Z,9.50
2022-11-23T04:21:16.428Z,9.51
2022-11-23T04:23:42.814Z,9.35
2022-11-23T04:26:09.209Z,9.65
2022-11-23T04:28:35.579Z,9.48
2022-11-23T04:31:01.917Z,9.45
2022-11-23T04:33:28.291Z,9.51
2022-11-23T04:35:54.667Z,10.04
2022-11-23T04:38:21.042Z,10.47
2022-11-23T04:40:47.370Z,10.17
2022-11-23T04:43:13.736Z,10.48
2022-11-23T04:45:40.090Z,10.58
2022-11-23T04:48:06.463Z,10.46
2022-11-23T04:50:32.804Z,10.49
2022-11-23T04:52:59.128Z,10.21
2022-11-23T04:55:25.459Z,9.62
2022-11-23T04:57:51.778Z,9.93
2022-11-23T05:00:18.102Z,9.94
2022-11-23T05:02:44.419Z,9.23
2022-11-23T05:05:10.778Z,9.44
2022-11-23T05:07:37.217Z,9.00
2022-11-23T05:10:03.654Z,8.88
2022-11-23T05:12:30.041Z,9.49
2022-11-23T05:14:56.400Z,9.71
2022-11-23T05:17:22.778Z,9.89
2022-11-23T05:19:49.160Z,9.96
2022-11-23T05:22:15.545Z,9.93
2022-11-23T05:24:41.890Z,9.99
2022-11-23T05:27:08.262Z,9.91
2022-11-23T05:29:34.902Z,9.93
2022-11-23T05:32:01.362Z,9.89
2022-11-23T05:34:27.698Z,9.18
2022-11-23T05:36:54.035Z,9.34
2022-11-23T05:39:20.408Z,8.72
2022-11-23T05:41:46.749Z,8.34
2022-11-23T05:44:13.129Z,8.15
2022-11-23T05:46:39.459Z,8.14
2022-11-23T05:49:05.846Z,8.16
2022-11-23T05:51:32.230Z,7.98
2022-11-23T05:53:58.613Z,8.05
2022-11-23T05:56:24.951Z,8.05
2022-11-23T05:58:51.344Z,7.93
2022-11-23T06:01:17.721Z,7.99
2022-11-23T06:03:44.154Z,7.86
2022-11-23T06:06:10.519Z,7.69
2022-11-23T06:08:36.843Z,7.72
2022-11-23T06:11:03.176Z,7.88
2022-11-23T06:13:29.506Z,7.78
2022-11-23T06:15:55.840Z,7.91
2022-11-23T06:18:22.166Z,7.89
2022-11-23T06:20:48.503Z,7.95
2022-11-23T06:23:14.871Z,8.22
2022-11-23T06:25:41.205Z,8.24
2022-11-23T06:28:07.568Z,8.33
2022-11-23T06:30:33.945Z,7.98
2022-11-23T06:33:00.325Z,8.35
2022-11-23T06:35:26.653Z,8.68
2022-11-23T06:37:52.979Z,8.46
2022-11-23T06:40:19.302Z,8.35
2022-11-23T06:42:45.671Z,8.42
2022-11-23T06:45:12.017Z,7.98
2022-11-23T06:47:38.342Z,7.79
2022-11-23T06:50:04.675Z,7.64
2022-11-23T06:52:31.049Z,7.70
2022-11-23T06:54:57.429Z,7.67
2022-11-23T06:57:23.770Z,7.54
2022-11-23T06:59:50.100Z,7.42
2022-11-23T07:02:16.436Z,7.42
2022-11-23T07:04:42.803Z,7.45
2022-11-23T07:07:09.245Z,7.50
2022-11-23T07:09:35.886Z,7.66
2022-11-23T07:12:02.301Z,7.68
2022-11-23T07:14:28.635Z,7.54
2022-11-23T07:16:54.973Z,7.64
2022-11-23T07:19:21.309Z,7.77
2022-11-23T07:21:47.681Z,7.74
2022-11-23T07:24:14.018Z,7.58
2022-11-23T07:26:40.398Z,7.73
2022-11-23T07:29:06.771Z,8.05
2022-11-23T07:31:33.143Z,8.12
2022-11-23T07:33:59.488Z,8.33
2022-11-23T07:36:25.817Z,8.15
2022-11-23T07:38:52.147Z,8.12
2022-11-23T07:41:18.516Z,8.43
2022-11-23T07:43:44.845Z,8.45
2022-11-23T07:46:11.193Z,8.64
2022-11-23T07:48:37.527Z,9.01
2022-11-23T07:51:04.004Z,9.34
2022-11-23T07:53:30.348Z,9.44
2022-11-23T07:55:56.722Z,9.58
2022-11-23T07:58:23.109Z,9.95
2022-11-23T08:00:49.450Z,9.89
2022-11-23T08:03:31.128Z,10.10
2022-11-23T08:05:57.527Z,10.02
2022-11-23T08:08:23.923Z,10.13
2022-11-23T08:10:53.768Z,10.24
2022-11-23T08:13:20.753Z,10.18
2022-11-23T08:15:53.257Z,10.41
2022-11-23T08:18:20.544Z,10.27
2022-11-23T08:20:46.879Z,10.14
2022-11-23T08:23:13.208Z,10.31
2022-11-23T08:25:39.558Z,10.56
2022-11-23T08:28:05.927Z,10.83
2022-11-23T08:30:32.295Z,10.81
2022-11-23T08:32:58.620Z,10.86
2022-11-23T08:35:24.957Z,10.97
2022-11-23T08:37:51.336Z,11.16
2022-11-23T08:40:23.571Z,11.36
2022-11-23T08:42:51.582Z,11.28
2022-11-23T08:45:17.931Z,11.57
2022-11-23T08:47:44.309Z,11.46
2022-11-23T08:50:10.703Z,11.63
2022-11-23T08:52:37.082Z,10.99
2022-11-23T08:55:03.470Z,11.02
2022-11-23T08:57:29.812Z,11.47
2022-11-23T08:59:56.138Z,10.95
2022-11-23T09:02:22.521Z,11.40
2022-11-23T09:04:48.897Z,11.11
2022-11-23T09:07:15.327Z,11.53
2022-11-23T09:09:41.762Z,11.58
2022-11-23T09:12:08.144Z,11.63
2022-11-23T09:14:34.873Z,11.61
2022-11-23T09:17:01.393Z,11.63
2022-11-23T09:19:27.727Z,11.45
2022-11-23T09:21:54.047Z,11.78
2022-11-23T09:24:20.477Z,11.85
2022-11-23T09:26:46.884Z,11.86
2022-11-23T09:29:13.250Z,11.77
2022-11-23T09:31:39.575Z,11.85
2022-11-23T09:34:05.954Z,12.01
2022-11-23T09:36:32.295Z,11.95
2022-11-23T09:38:58.633Z,11.92
2022-11-23T09:41:25.013Z,11.96
2022-11-23T09:43:51.370Z,12.09
2022-11-23T09:46:17.698Z,11.90
2022-11-23T09:48:44.027Z,11.98
2022-11-23T09:51:10.360Z,12.01
2022-11-23T09:53:36.697Z,12.00
2022-11-23T09:56:03.065Z,12.14
2022-11-23T09:58:29.406Z,12.10
2022-11-23T10:00:55.799Z,12.02
2022-11-23T10:03:22.189Z,12.10
2022-11-23T10:05:48.563Z,11.99
2022-11-23T10:08:14.928Z,12.04
2022-11-23T10:10:41.264Z,12.01
2022-11-23T10:13:07.665Z,11.87
2022-11-23T10:15:34.036Z,12.07
2022-11-23T10:18:00.410Z,12.13
2022-11-23T10:20:26.750Z,12.17
2022-11-23T10:22:53.075Z,12.23
2022-11-23T10:25:19.449Z,12.32
2022-11-23T10:27:45.933Z,12.33
2022-11-23T10:30:12.304Z,12.62
2022-11-23T10:32:38.652Z,12.55
2022-11-23T10:35:04.982Z,12.66
2022-11-23T10:37:31.346Z,12.57
2022-11-23T10:39:57.737Z,12.65
2022-11-23T10:42:24.124Z,12.89
2022-11-23T10:44:50.511Z,13.00
2022-11-23T10:47:16.844Z,12.81
2022-11-23T10:49:43.170Z,12.83
2022-11-23T10:52:09.498Z,13.06
2022-11-23T10:54:37.084Z,12.87
2022-11-23T10:57:03.501Z,12.95
2022-11-23T10:59:29.868Z,12.95
2022-11-23T11:01:56.304Z,13.11
2022-11-23T11:04:22.696Z,13.29
2022-11-23T11:06:49.073Z,13.19
2022-11-23T11:09:15.411Z,13.29
2022-11-23T11:11:41.743Z,13.19
2022-11-23T11:14:08.082Z,13.20
2022-11-23T11:16:34.453Z,13.10
2022-11-23T11:19:00.790Z,13.17
2022-11-23T11:21:27.169Z,13.23
2022-11-23T11:23:53.512Z,13.35
2022-11-23T11:26:19.842Z,13.39
2022-11-23T11:28:46.174Z,13.40
2022-11-23T11:31:12.550Z,13.38
2022-11-23T11:33:38.882Z,13.23
2022-11-23T11:36:05.214Z,13.32
2022-11-23T11:38:31.566Z,13.52
2022-11-23T11:40:57.900Z,13.52
2022-11-23T11:43:32.303Z,13.45
2022-11-23T11:46:27.851Z,13.49
2022-11-23T11:48:50.478Z,13.63
2022-11-23T11:51:16.877Z,13.52
2022-11-23T11:53:43.323Z,13.48
2022-11-23T11:56:09.708Z,13.61
2022-11-23T11:58:38.943Z,13.41
2022-11-23T12:01:09.213Z,13.44
2022-11-23T12:03:35.588Z,13.40
2022-11-23T12:06:01.975Z,13.42
2022-11-23T12:08:28.354Z,13.45
2022-11-23T12:10:54.703Z,13.52
2022-11-23T12:13:21.079Z,13.77
2022-11-23T12:15:50.146Z,13.74
2022-11-23T12:18:16.851Z,13.54
2022-11-23T12:20:43.222Z,13.44
2022-11-23T12:23:09.569Z,13.45
2022-11-23T12:25:35.897Z,13.46
2022-11-23T12:28:02.271Z,13.52
2022-11-23T12:30:28.651Z,13.64
2022-11-23T12:32:55.042Z,13.44
2022-11-23T12:35:21.451Z,13.55
2022-11-23T12:37:47.836Z,13.97
2022-11-23T12:40:14.221Z,13.83
2022-11-23T12:42:40.616Z,13.96
2022-11-23T12:45:06.990Z,13.53
2022-11-23T12:47:33.322Z,13.73
2022-11-23T12:49:59.657Z,13.94
2022-11-23T12:52:25.997Z,13.83
2022-11-23T12:54:52.322Z,13.73
2022-11-23T12:57:18.732Z,13.90
2022-11-23T12:59:45.162Z,13.83
2022-11-23T13:02:11.577Z,13.96
2022-11-23T13:04:38.008Z,13.83
2022-11-23T13:09:50.723Z,13.94
2022-11-23T13:12:17.047Z,14.06
2022-11-23T13:14:43.376Z,14.12
2022-11-23T13:17:09.790Z,14.08
2022-11-23T13:19:36.169Z,14.23
2022-11-23T13:22:02.491Z,14.29
2022-11-23T13:24:28.821Z,14.24
2022-11-23T13:26:55.194Z,14.19
2022-11-23T13:29:21.540Z,13.97
2022-11-23T13:31:47.954Z,14.06
2022-11-23T13:34:14.326Z,14.15
2022-11-23T13:37:10.979Z,13.84
2022-11-23T13:39:27.035Z,13.64
2022-11-23T13:41:53.424Z,13.56
2022-11-23T13:44:19.799Z,13.52
2022-11-23T13:46:46.140Z,13.68
2022-11-23T13:49:12.466Z,13.58
2022-11-23T13:51:38.793Z,13.79
2022-11-23T13:54:05.167Z,13.86
2022-11-23T13:56:31.515Z,13.83
2022-11-23T13:58:57.878Z,13.72
2022-11-23T14:01:24.386Z,13.56
2022-11-23T14:03:50.804Z,13.25
2022-11-23T14:06:17.230Z,13.31
2022-11-23T14:08:43.643Z,13.13
2022-11-23T14:11:09.993Z,13.09
2022-11-23T14:13:36.325Z,12.90
2022-11-23T14:16:02.708Z,12.54
2022-11-23T14:18:29.093Z,12.88
2022-11-23T14:20:55.429Z,13.13
2022-11-23T14:23:21.800Z,13.16
2022-11-23T14:25:48.183Z,12.86
2022-11-23T14:28:14.564Z,12.91
2022-11-23T14:30:40.913Z,12.90
2022-11-23T14:33:07.241Z,12.94
2022-11-23T14:35:33.614Z,13.01
2022-11-23T14:37:59.993Z,12.95
2022-11-23T14:40:26.393Z,12.87
2022-11-23T14:42:52.760Z,13.04
2022-11-23T14:45:19.108Z,13.11
2022-11-23T14:47:45.483Z,13.11
2022-11-23T14:50:11.867Z,13.13
2022-11-23T14:52:38.209Z,13.05
2022-11-23T14:55:04.540Z,13.15
2022-11-23T14:57:30.906Z,12.80
2022-11-23T14:59:57.252Z,13.13
2022-11-23T15:02:23.587Z,12.85
2022-11-23T15:04:50.209Z,12.89
2022-11-23T15:07:16.758Z,12.85
2022-11-23T15:09:43.144Z,12.89
2022-11-23T15:12:09.515Z,13.01
2022-11-23T15:14:36.040Z,13.02
2022-11-23T15:17:02.715Z,13.25
2022-11-23T15:19:29.131Z,13.34
2022-11-23T15:21:55.469Z,13.22
2022-11-23T15:24:21.848Z,13.11
2022-11-23T15:26:49.411Z,12.96
2022-11-23T15:29:15.956Z,13.08
2022-11-23T15:32:00.448Z,13.11
2022-11-23T15:34:28.668Z,12.77
2022-11-23T15:36:55.057Z,12.52
2022-11-23T15:39:21.400Z,12.79
2022-11-23T15:41:47.900Z,12.88
2022-11-23T15:44:14.269Z,12.99
2022-11-23T15:46:40.688Z,12.96
2022-11-23T15:49:07.076Z,12.87
2022-11-23T15:51:33.424Z,12.94
2022-11-23T15:53:59.793Z,13.08
2022-11-23T15:56:26.181Z,13.04
2022-11-23T15:58:52.535Z,13.15
2022-11-23T16:01:18.927Z,12.99
2022-11-23T16:03:45.324Z,12.58
2022-11-23T16:06:11.656Z,12.71
2022-11-23T16:08:38.026Z,12.61
2022-11-23T16:11:04.418Z,12.77
2022-11-23T16:13:30.747Z,12.92
2022-11-23T16:15:57.084Z,12.89
2022-11-23T16:18:23.416Z,12.95
2022-11-23T16:20:49.777Z,12.81
2022-11-23T16:23:16.157Z,12.79
2022-11-23T16:25:42.536Z,12.90
2022-11-23T16:28:08.890Z,13.07
2022-11-23T16:30:35.308Z,12.90
2022-11-23T16:33:01.762Z,13.00
2022-11-23T16:35:28.109Z,13.18
2022-11-23T16:37:54.451Z,13.09
2022-11-23T16:40:20.844Z,13.03
2022-11-23T16:42:47.192Z,12.96
2022-11-23T16:45:13.575Z,13.19
2022-11-23T16:47:39.974Z,13.09
2022-11-23T16:50:06.326Z,13.09
2022-11-23T16:52:32.650Z,13.35
2022-11-23T16:54:58.988Z,13.24
2022-11-23T16:57:25.306Z,13.42
2022-11-23T16:59:51.645Z,13.24
2022-11-23T17:02:18.068Z,13.16
2022-11-23T17:04:44.545Z,13.37
2022-11-23T17:07:10.983Z,13.23
2022-11-23T17:09:37.392Z,13.22
2022-11-23T17:12:03.767Z,13.13
2022-11-23T17:14:30.219Z,13.01
2022-11-23T17:16:56.736Z,13.25
2022-11-23T17:19:23.229Z,13.25
2022-11-23T17:21:49.614Z,13.32
2022-11-23T17:24:15.999Z,13.28
2022-11-23T17:26:42.341Z,13.31
2022-11-23T17:29:08.671Z,13.50
2022-11-23T17:31:35.007Z,13.51
2022-11-23T17:34:01.377Z,13.53
2022-11-23T17:36:27.760Z,13.42
2022-11-23T17:38:54.137Z,13.65
2022-11-23T17:41:20.471Z,13.58
2022-11-23T17:43:46.798Z,13.37
2022-11-23T17:46:13.154Z,13.55
2022-11-23T17:48:39.554Z,13.57
2022-11-23T17:51:05.930Z,13.46
2022-11-23T17:53:32.315Z,13.56
2022-11-23T17:55:58.753Z,13.60
2022-11-23T17:58:25.091Z,13.52
2022-11-23T18:00:51.409Z,13.51
2022-11-23T18:03:17.764Z,13.64
2022-11-23T18:05:44.149Z,13.58
2022-11-23T18:08:10.532Z,13.64
2022-11-23T18:10:36.912Z,13.77
2022-11-23T18:13:03.249Z,13.76
2022-11-23T18:15:29.612Z,13.88
2022-11-23T18:17:58.965Z,13.62
2022-11-23T18:20:29.468Z,13.95
2022-11-23T18:22:55.850Z,13.80
2022-11-23T18:25:22.187Z,13.76
2022-11-23T18:27:48.567Z,13.82
2022-11-23T18:30:14.921Z,13.84
2022-11-23T18:32:41.288Z,13.82
2022-11-23T18:35:07.659Z,13.67
2022-11-23T18:37:34.026Z,13.25
2022-11-23T18:40:00.378Z,13.40
2022-11-23T18:42:26.761Z,13.07
2022-11-23T18:44:53.150Z,13.22
2022-11-23T18:47:19.493Z,13.46
2022-11-23T18:49:45.865Z,13.51
2022-11-23T18:52:12.247Z,13.47
2022-11-23T18:54:38.592Z,13.22
2022-11-23T18:57:04.922Z,13.42
2022-11-23T19:02:17.562Z,13.30
2022-11-23T19:04:43.890Z,13.48
2022-11-23T19:07:10.278Z,13.60
2022-11-23T19:09:36.682Z,13.69
2022-11-23T19:12:03.031Z,13.79
2022-11-23T19:14:29.362Z,13.76
2022-11-23T19:16:55.697Z,13.68
2022-11-23T19:19:22.026Z,13.66
2022-11-23T19:21:48.521Z,13.72
2022-11-23T19:24:14.913Z,13.68
2022-11-23T19:26:41.271Z,13.64
2022-11-23T19:29:07.683Z,13.61
2022-11-23T19:31:34.098Z,13.73
2022-11-23T19:34:00.560Z,13.76
2022-11-23T19:36:26.952Z,13.81
2022-11-23T19:38:53.310Z,13.71
2022-11-23T19:41:19.633Z,13.63
2022-11-23T19:43:46.075Z,13.56
2022-11-23T19:46:12.508Z,13.31
2022-11-23T19:48:38.895Z,13.55
2022-11-23T19:51:05.264Z,13.65
2022-11-23T19:53:31.611Z,13.78
2022-11-23T19:55:57.995Z,13.73
2022-11-23T19:58:24.384Z,13.73
2022-11-23T20:00:50.719Z,13.68
2022-11-23T20:03:17.098Z,13.84
2022-11-23T20:05:43.482Z,13.56
2022-11-23T20:08:09.828Z,13.69
2022-11-23T20:10:36.235Z,13.63
2022-11-23T20:13:02.642Z,13.73
2022-11-23T20:15:29.037Z,13.73
2022-11-23T20:17:55.376Z,13.64
2022-11-23T20:20:21.895Z,13.56
2022-11-23T20:22:48.218Z,13.57
2022-11-23T20:25:14.575Z,13.61
2022-11-23T20:27:40.912Z,13.60
2022-11-23T20:30:07.255Z,13.62
2022-11-23T20:32:33.585Z,13.78
2022-11-23T20:34:59.952Z,13.80
2022-11-23T20:37:26.330Z,13.85
2022-11-23T20:39:52.711Z,13.88
2022-11-23T20:42:19.102Z,13.75
2022-11-23T20:44:45.453Z,13.93
2022-11-23T20:47:11.855Z,13.83
2022-11-23T20:49:38.198Z,13.95
2022-11-23T20:52:04.579Z,13.84
2022-11-23T20:54:30.973Z,13.79
2022-11-23T20:56:57.362Z,13.74
2022-11-23T20:59:23.778Z,14.02
2022-11-23T21:01:50.271Z,13.93
2022-11-23T21:04:16.769Z,13.80
2022-11-23T21:06:43.160Z,14.02
2022-11-23T21:09:09.781Z,13.59
2022-11-23T21:11:36.175Z,13.53
2022-11-23T21:14:02.495Z,13.46
2022-11-23T21:16:28.880Z,13.60
2022-11-23T21:18:55.331Z,13.86
2022-11-23T21:21:21.709Z,14.15
2022-11-23T21:23:51.124Z,13.96
2022-11-23T21:26:18.777Z,14.22
2022-11-23T21:28:45.162Z,14.06
2022-11-23T21:31:11.568Z,13.68
2022-11-23T21:33:37.980Z,14.09
2022-11-23T21:36:04.361Z,14.15
2022-11-23T21:38:30.744Z,14.18
2022-11-23T21:40:57.125Z,13.83
2022-11-23T21:43:23.470Z,13.98
2022-11-23T21:45:49.793Z,14.06
2022-11-23T21:48:16.205Z,14.08
2022-11-23T21:50:42.595Z,13.90
2022-11-23T21:53:08.973Z,13.71
2022-11-23T21:55:35.352Z,13.93
2022-11-23T21:58:01.715Z,14.04
2022-11-23T22:00:31.314Z,14.12
2022-11-23T22:02:58.052Z,14.13
2022-11-23T22:05:24.418Z,13.95
2022-11-23T22:08:13.520Z,14.01
2022-11-23T22:10:37.156Z,14.12
2022-11-23T22:13:03.718Z,14.06
2022-11-23T22:15:30.101Z,14.09
2022-11-23T22:17:56.463Z,14.15
2022-11-23T22:20:22.823Z,14.10
2022-11-23T22:22:49.206Z,14.19
2022-11-23T22:25:15.578Z,14.02
2022-11-23T22:27:41.953Z,14.06
2022-11-23T22:30:08.316Z,14.06
2022-11-23T22:32:34.698Z,14.03
2022-11-23T22:35:01.056Z,14.00
2022-11-23T22:37:27.587Z,14.06
2022-11-23T22:39:53.955Z,13.86
2022-11-23T22:42:20.333Z,14.06
2022-11-23T22:44:46.695Z,14.07
2022-11-23T22:47:13.105Z,14.06
2022-11-23T22:49:39.475Z,13.87
2022-11-23T22:52:05.874Z,13.97
2022-11-23T22:54:32.620Z,13.80
2022-11-23T22:56:59.107Z,13.94
2022-11-23T22:59:25.498Z,13.72
2022-11-23T23:01:51.880Z,13.65
2022-11-23T23:04:18.253Z,13.60
2022-11-23T23:06:44.624Z,13.66
2022-11-23T23:09:11.010Z,13.54
2022-11-23T23:11:37.366Z,13.63
2022-11-23T23:14:03.744Z,13.52
2022-11-23T23:16:30.294Z,13.42
2022-11-23T23:18:56.808Z,13.40
2022-11-23T23:21:23.212Z,12.99
2022-11-23T23:23:49.568Z,12.98
2022-11-23T23:26:15.942Z,13.29
2022-11-23T23:28:42.303Z,13.28
2022-11-23T23:31:08.666Z,13.32
2022-11-23T23:33:35.040Z,13.18
2022-11-23T23:36:01.417Z,13.29
2022-11-23T23:38:27.783Z,13.28
2022-11-23T23:40:54.159Z,13.49
2022-11-23T23:43:20.524Z,13.42
2022-11-23T23:45:46.928Z,13.46
2022-11-23T23:48:13.338Z,13.64
2022-11-23T23:50:39.718Z,13.48
2022-11-23T23:53:06.086Z,13.58
2022-11-23T23:55:32.455Z,13.23
2022-11-23T23:57:58.816Z,13.52
